Atlanta, Georgia
Traffic Map
Current Weather Conditions
Atlanta, Georgia
Scattered Clouds
Scattered Clouds
38°
Feels Like: 29°
Wind Chill: 29° Ceiling: Unl
Heat Index: 38° Visibility: 10mi
Dew Point: 25° Wind: 16mph
Humidity: 60% Direction: 330° (NNW)
Pressure: 30.23in Gusts: 0mph
Raw Report DataKATL 301152Z 33014KT 10SM FEW034 SCT200 03/M04 A3023 RMK AO2 PK WND 33029/1128 SLP240 T00331039 10128 20033 53018
Traffic Incident Summary
Active as of:
Severity:
Category:
InformationThere was an issue retrieving the traffic information for this location. Please try a different location or try again shortly.
Advertisements
Track Severe Weather on mobile